Aviation Digital Data Service (ADDS)

Output produced by METARs form (1355 UTC 24 August 2019)
found at http://www.aviationweather.gov/metar/data/
 
Forecast for: LBWN (VARNA , BG)
Text: TAF LBWN 241100Z 2412/2512 09014KT CAVOK
Forecast period: 1200 to 1800 UTC 24 August 2019
Forecast type: FROM: standard forecast or significant change
Winds: from the E (90 degrees) at 16 MPH (14 knots; 7.2 m/s)
Visibility: 6 or more miles 10+ km)
Ceiling: unknown
Clouds: missing
Weather: NSW  (no significant weather)
Text: BECMG 2418/2420 35010KT
Forecast period: 1800 UTC 24 August 2019 to 0600 UTC 25 August 2019
Forecast type: BECOMING: Conditions expected to become as follows by 2000 UTC 24 August 2019
Winds: from the N (350 degrees) at 12 MPH (10 knots; 5.1 m/s)
Visibility: 6 or more miles 10+ km)
Ceiling: unknown
Clouds: missing
Weather: NSW  (no significant weather)
Text: BECMG 2506/2508 05010KT
Forecast period: 0600 to 1200 UTC 25 August 2019
Forecast type: BECOMING: Conditions expected to become as follows by 0800 UTC 25 August 2019
Winds: from the NE (50 degrees) at 12 MPH (10 knots; 5.1 m/s)
Visibility: 6 or more miles 10+ km)
Ceiling: unknown
Clouds: missing
Weather: NSW  (no significant weather)